Time;durP1;ratioP1;P1;durP2;ratioP2;P2;SDS_P1;SDS_P2;PMS_P1;PMS_P2;Temp;Humidity;BMP_temperature;BMP_pressure;BME280_temperature;BME280_humidity;BME280_pressure;Samples;Min_cycle;Max_cycle;Signal;HPM_P1;HPM_P2
2022/12/20 00:00:51;;;;;;;3.70;2.25;;;12.50;99.90;;;;;;2074456;28;20029;-71
2022/12/20 00:01:52;;;;;;;2.97;2.13;;;12.60;99.90;;;;;;2075484;28;20116;-71
2022/12/20 00:02:52;;;;;;;4.30;2.45;;;12.60;99.90;;;;;;2074368;28;20026;-71
2022/12/20 00:03:55;;;;;;;2.58;2.10;;;12.60;99.90;;;;;;2074659;28;20034;-71
2022/12/20 00:04:55;;;;;;;4.78;2.58;;;12.60;99.90;;;;;;2073237;28;20036;-71
2022/12/20 00:05:56;;;;;;;4.07;2.25;;;12.60;99.90;;;;;;2073351;28;20620;-71
2022/12/20 00:06:56;;;;;;;2.38;2.17;;;12.60;99.90;;;;;;2076055;28;20100;-71
2022/12/20 00:07:57;;;;;;;2.75;2.10;;;12.60;99.90;;;;;;2073686;28;20029;-71
2022/12/20 00:09:00;;;;;;;2.70;2.00;;;12.70;99.90;;;;;;2073983;28;20037;-71
2022/12/20 00:10:00;;;;;;;4.32;2.40;;;12.70;99.90;;;;;;2073403;28;20034;-71
2022/12/20 00:11:03;;;;;;;4.03;1.80;;;12.70;99.90;;;;;;2075459;28;20029;-71
2022/12/20 00:12:04;;;;;;;3.50;2.35;;;12.70;99.90;;;;;;2072978;28;20030;-71
2022/12/20 00:13:05;;;;;;;5.93;2.65;;;12.70;99.90;;;;;;2074353;28;20021;-71
2022/12/20 00:14:07;;;;;;;4.15;1.67;;;12.70;99.90;;;;;;2075066;28;20022;-71
2022/12/20 00:15:08;;;;;;;2.22;2.03;;;12.70;99.90;;;;;;2073891;28;20022;-71
2022/12/20 00:16:12;;;;;;;3.58;2.28;;;12.70;99.90;;;;;;2074326;28;20033;-71
2022/12/20 00:17:12;;;;;;;2.00;1.80;;;12.70;99.90;;;;;;2075408;28;20165;-71
2022/12/20 00:18:13;;;;;;;2.83;1.90;;;12.70;99.90;;;;;;2074264;28;20018;-71
2022/12/20 00:19:13;;;;;;;3.78;2.50;;;12.70;99.90;;;;;;2073176;28;20084;-71
2022/12/20 00:20:14;;;;;;;1.98;1.80;;;12.70;99.90;;;;;;2073299;28;20033;-71
2022/12/20 00:21:15;;;;;;;3.78;1.98;;;12.70;99.90;;;;;;2073388;28;20050;-71
2022/12/20 00:22:15;;;;;;;3.85;2.15;;;12.70;99.90;;;;;;2073527;28;20067;-71
2022/12/20 00:23:16;;;;;;;2.13;1.90;;;12.70;99.90;;;;;;2073563;28;20048;-71
2022/12/20 00:24:16;;;;;;;4.15;1.95;;;12.70;99.90;;;;;;2074293;28;20048;-72
2022/12/20 00:25:19;;;;;;;1.92;1.80;;;12.80;99.90;;;;;;2072443;28;20026;-72
2022/12/20 00:26:23;;;;;;;2.50;2.10;;;12.80;99.90;;;;;;2072538;28;20026;-71
2022/12/20 00:27:23;;;;;;;2.25;1.90;;;12.80;99.90;;;;;;2073288;28;20051;-71
2022/12/20 00:28:24;;;;;;;1.73;1.50;;;12.80;99.90;;;;;;2072179;28;20060;-71
2022/12/20 00:29:24;;;;;;;2.70;1.90;;;12.80;99.90;;;;;;2075005;28;20479;-71
2022/12/20 00:30:25;;;;;;;1.98;1.77;;;12.80;99.90;;;;;;2074733;28;20017;-71
2022/12/20 00:31:27;;;;;;;3.35;1.88;;;12.80;99.90;;;;;;2075531;28;20050;-71
2022/12/20 00:32:28;;;;;;;2.95;1.83;;;12.80;99.90;;;;;;2073550;28;20365;-71
2022/12/20 00:33:28;;;;;;;2.55;1.60;;;12.80;99.90;;;;;;2074559;28;20040;-71
2022/12/20 00:34:29;;;;;;;2.22;1.75;;;12.80;99.90;;;;;;2075575;28;20037;-71
2022/12/20 00:35:30;;;;;;;4.30;1.90;;;12.80;99.90;;;;;;2073724;28;20021;-71
2022/12/20 00:36:31;;;;;;;2.78;1.60;;;12.80;99.90;;;;;;2073472;28;20042;-71
2022/12/20 00:37:32;;;;;;;3.78;1.75;;;12.80;99.90;;;;;;2074289;28;20021;-71
2022/12/20 00:38:33;;;;;;;2.13;1.92;;;12.90;99.90;;;;;;2071767;28;20030;-71
2022/12/20 00:39:34;;;;;;;2.13;1.63;;;12.90;99.90;;;;;;2074931;28;20017;-71
2022/12/20 00:40:34;;;;;;;2.10;1.60;;;12.80;99.90;;;;;;2074451;28;20052;-71
2022/12/20 00:41:35;;;;;;;2.85;1.60;;;12.90;99.90;;;;;;2072406;28;20572;-71
2022/12/20 00:42:36;;;;;;;3.85;1.73;;;12.90;99.90;;;;;;2074588;28;20025;-71
2022/12/20 00:43:37;;;;;;;2.92;1.90;;;12.90;99.90;;;;;;2071797;28;20141;-71
2022/12/20 00:44:38;;;;;;;1.60;1.20;;;12.90;99.90;;;;;;2072029;28;20080;-71
2022/12/20 00:45:38;;;;;;;2.42;1.50;;;12.90;99.90;;;;;;2072965;28;20115;-71
2022/12/20 00:46:39;;;;;;;2.95;2.13;;;12.90;99.90;;;;;;2073714;28;20034;-71
2022/12/20 00:47:39;;;;;;;2.28;2.00;;;12.90;99.90;;;;;;2074461;28;20029;-71
2022/12/20 00:48:40;;;;;;;1.85;1.38;;;12.90;99.90;;;;;;2072123;28;20033;-71
2022/12/20 00:49:41;;;;;;;2.28;1.67;;;12.90;99.90;;;;;;2073429;28;20021;-71
2022/12/20 00:50:41;;;;;;;1.60;1.50;;;12.90;99.90;;;;;;2073301;28;20351;-71
2022/12/20 00:51:42;;;;;;;2.33;1.60;;;12.90;99.90;;;;;;2074128;28;20084;-71
2022/12/20 00:52:42;;;;;;;2.67;1.88;;;13.00;99.90;;;;;;2071719;28;20049;-72
2022/12/20 00:53:43;;;;;;;2.88;1.60;;;13.00;99.90;;;;;;2073871;28;20137;-71
2022/12/20 00:54:44;;;;;;;3.67;1.80;;;13.00;99.90;;;;;;2073699;28;20034;-71
2022/12/20 00:55:45;;;;;;;2.50;1.60;;;13.00;99.90;;;;;;2074229;28;20056;-71
2022/12/20 00:56:46;;;;;;;2.88;1.70;;;13.00;99.90;;;;;;2073118;28;20026;-71
2022/12/20 00:57:46;;;;;;;1.73;1.60;;;13.00;99.90;;;;;;2075327;28;20029;-71
2022/12/20 00:58:47;;;;;;;2.30;1.33;;;13.00;99.90;;;;;;2077172;28;20439;-71
2022/12/20 00:59:48;;;;;;;3.50;1.55;;;13.00;99.90;;;;;;2072722;28;20021;-71
2022/12/20 01:00:49;;;;;;;3.70;1.70;;;13.00;99.90;;;;;;2072410;28;20034;-71
2022/12/20 01:01:49;;;;;;;2.65;1.70;;;13.00;99.90;;;;;;2073502;28;20488;-71
2022/12/20 01:02:50;;;;;;;2.75;1.50;;;13.00;99.90;;;;;;2073908;28;20624;-71
2022/12/20 01:03:51;;;;;;;4.25;2.13;;;13.00;99.90;;;;;;2074881;28;20103;-71
2022/12/20 01:04:52;;;;;;;3.45;1.90;;;13.00;99.90;;;;;;2071640;28;20026;-71
2022/12/20 01:05:54;;;;;;;2.10;1.60;;;13.00;99.90;;;;;;2074037;28;20057;-71
2022/12/20 01:06:55;;;;;;;3.08;1.73;;;13.00;99.90;;;;;;2073181;28;20018;-71
2022/12/20 01:07:55;;;;;;;3.72;1.50;;;13.00;99.90;;;;;;2074273;28;20084;-71
2022/12/20 01:08:56;;;;;;;5.93;1.80;;;13.00;99.90;;;;;;2073703;28;20914;-71
2022/12/20 01:09:57;;;;;;;3.90;1.70;;;13.00;99.90;;;;;;2078416;28;20121;-71
2022/12/20 01:11:08;;;;;;;1.92;1.70;;;13.00;99.90;;;;;;2078631;28;20032;-71
2022/12/20 01:12:08;;;;;;;3.05;1.70;;;13.00;99.90;;;;;;2073024;28;20033;-71
2022/12/20 01:13:09;;;;;;;3.83;1.77;;;13.00;99.90;;;;;;2072406;28;20026;-71
2022/12/20 01:14:12;;;;;;;2.13;1.83;;;13.00;99.90;;;;;;2074656;28;20030;-71
2022/12/20 01:15:13;;;;;;;2.55;1.63;;;13.00;99.90;;;;;;2072705;28;20063;-71
2022/12/20 01:16:23;;;;;;;1.67;1.58;;;13.00;99.90;;;;;;2074803;28;20635;-71
2022/12/20 01:17:24;;;;;;;2.28;1.60;;;13.00;99.90;;;;;;2075886;28;20030;-71
2022/12/20 01:18:24;;;;;;;3.20;1.65;;;13.00;99.90;;;;;;2071534;28;20030;-71
2022/12/20 01:19:25;;;;;;;1.60;1.35;;;13.00;99.90;;;;;;2072019;28;20049;-71
2022/12/20 01:20:25;;;;;;;2.05;1.50;;;13.00;99.90;;;;;;2070589;28;20053;-71
2022/12/20 01:21:27;;;;;;;2.30;1.90;;;13.00;99.90;;;;;;2073528;28;20227;-71
2022/12/20 01:22:27;;;;;;;2.05;1.45;;;13.00;99.90;;;;;;2075187;28;20497;-71
2022/12/20 01:23:28;;;;;;;2.42;1.40;;;13.00;99.90;;;;;;2074200;28;20038;-71
2022/12/20 01:24:29;;;;;;;2.65;1.42;;;13.00;99.90;;;;;;2072595;28;20040;-71
2022/12/20 01:25:30;;;;;;;3.60;1.58;;;13.00;99.90;;;;;;2072977;28;20018;-71
2022/12/20 01:26:31;;;;;;;2.10;1.50;;;13.00;99.90;;;;;;2073904;28;20077;-71
2022/12/20 01:27:31;;;;;;;3.58;2.03;;;13.00;99.90;;;;;;2073010;28;20050;-71
2022/12/20 01:28:32;;;;;;;4.00;1.55;;;13.00;99.90;;;;;;2073556;28;20490;-71
2022/12/20 01:29:32;;;;;;;3.85;1.80;;;13.00;99.90;;;;;;2073279;28;20644;-71
2022/12/20 01:30:33;;;;;;;4.68;1.58;;;13.00;99.90;;;;;;2075131;28;20033;-71
2022/12/20 01:31:34;;;;;;;3.45;1.80;;;13.00;99.90;;;;;;2075909;28;20022;-71
2022/12/20 01:32:35;;;;;;;2.25;1.58;;;13.00;99.90;;;;;;2074842;28;20041;-71
2022/12/20 01:33:35;;;;;;;2.65;1.70;;;13.00;99.90;;;;;;2074093;28;20091;-71
2022/12/20 01:34:36;;;;;;;2.50;1.40;;;13.10;99.90;;;;;;2070721;28;20042;-71
2022/12/20 01:35:37;;;;;;;3.33;1.40;;;13.00;99.90;;;;;;2074936;28;20563;-71
2022/12/20 01:36:38;;;;;;;2.45;1.63;;;13.00;99.90;;;;;;2071663;28;20030;-71
2022/12/20 01:37:38;;;;;;;3.28;1.55;;;13.00;99.90;;;;;;2072589;28;20761;-71
2022/12/20 01:38:39;;;;;;;2.05;1.70;;;13.00;99.90;;;;;;2072823;28;20033;-71
2022/12/20 01:39:40;;;;;;;2.17;1.40;;;13.00;99.90;;;;;;2074159;28;20034;-71
2022/12/20 01:40:41;;;;;;;3.95;1.38;;;13.00;99.90;;;;;;2074267;28;20504;-71
2022/12/20 01:41:43;;;;;;;2.58;1.63;;;13.10;99.90;;;;;;2073915;28;20071;-71
2022/12/20 01:42:43;;;;;;;2.38;1.60;;;13.10;99.90;;;;;;2071669;28;20070;-71
2022/12/20 01:43:45;;;;;;;1.95;1.60;;;13.10;99.90;;;;;;2075118;28;20046;-71
2022/12/20 01:44:55;;;;;;;2.53;1.83;;;13.10;99.90;;;;;;2073911;28;20624;-71
2022/12/20 01:45:55;;;;;;;4.72;1.80;;;13.10;99.90;;;;;;2073163;28;20033;-71
2022/12/20 01:46:56;;;;;;;2.78;1.75;;;13.10;99.90;;;;;;2073779;28;20038;-71
2022/12/20 01:47:58;;;;;;;2.85;1.67;;;13.10;99.90;;;;;;2073372;28;20538;-71
2022/12/20 01:49:06;;;;;;;2.58;1.73;;;13.10;99.90;;;;;;2074595;28;20025;-71
2022/12/20 01:50:08;;;;;;;2.70;1.95;;;13.10;99.90;;;;;;2073596;28;20030;-71
2022/12/20 01:51:09;;;;;;;2.70;1.75;;;13.10;99.90;;;;;;2074509;28;20083;-71
2022/12/20 01:52:12;;;;;;;2.45;1.27;;;13.10;99.90;;;;;;2075273;28;20018;-71
2022/12/20 01:53:14;;;;;;;2.83;1.80;;;13.10;99.90;;;;;;2069011;28;20033;-71
2022/12/20 01:54:23;;;;;;;1.98;1.40;;;13.10;99.90;;;;;;2070407;28;20026;-71
2022/12/20 01:55:27;;;;;;;2.25;1.70;;;13.00;99.90;;;;;;2075708;28;20397;-71
2022/12/20 01:56:28;;;;;;;2.22;1.80;;;13.10;99.90;;;;;;2076573;28;20033;-71
2022/12/20 01:57:38;;;;;;;2.47;1.58;;;13.10;99.90;;;;;;2076174;28;20020;-71
2022/12/20 01:58:39;;;;;;;3.08;1.92;;;13.10;99.90;;;;;;2074702;28;20029;-71
2022/12/20 01:59:41;;;;;;;2.13;1.70;;;13.00;99.90;;;;;;2072997;28;20026;-71
2022/12/20 02:00:42;;;;;;;2.20;1.67;;;13.10;99.90;;;;;;2077950;28;20504;-71
2022/12/20 02:01:44;;;;;;;2.25;1.70;;;13.00;99.90;;;;;;2073573;28;20426;-71
2022/12/20 02:02:48;;;;;;;2.95;1.98;;;13.10;99.90;;;;;;2076945;28;20021;-71
2022/12/20 02:03:51;;;;;;;1.85;1.23;;;13.10;99.90;;;;;;2076259;28;20048;-71
2022/12/20 02:04:51;;;;;;;1.75;1.65;;;13.10;99.90;;;;;;2075375;28;20100;-71
2022/12/20 02:05:52;;;;;;;2.75;1.63;;;13.10;99.90;;;;;;2075687;28;20029;-71
2022/12/20 02:06:52;;;;;;;2.55;1.40;;;13.00;99.90;;;;;;2074515;28;20029;-71
2022/12/20 02:07:55;;;;;;;2.72;1.92;;;13.00;99.90;;;;;;2074820;28;20018;-71
2022/12/20 02:08:59;;;;;;;2.83;1.88;;;13.10;99.90;;;;;;2074966;28;20044;-71
2022/12/20 02:10:00;;;;;;;3.42;1.98;;;13.10;99.90;;;;;;2075671;28;20025;-71
2022/12/20 02:11:15;;;;;;;3.80;1.98;;;13.10;99.90;;;;;;2075019;28;20018;-71
2022/12/20 02:12:21;;;;;;;2.33;1.63;;;13.10;99.90;;;;;;2074988;28;20379;-71
2022/12/20 02:13:39;;;;;;;2.97;1.50;;;13.10;99.90;;;;;;2074685;28;20429;-71
2022/12/20 02:15:04;;;;;;;5.68;2.55;;;13.10;99.90;;;;;;2074181;28;20025;-71
2022/12/20 02:16:05;;;;;;;3.17;1.83;;;13.10;99.90;;;;;;2076518;28;20077;-71
2022/12/20 02:17:29;;;;;;;3.55;1.90;;;13.10;99.90;;;;;;2075957;28;20022;-71
2022/12/20 02:18:48;;;;;;;3.25;2.10;;;13.10;99.90;;;;;;2075652;28;20405;-71
2022/12/20 02:20:10;;;;;;;1.77;1.60;;;13.10;99.90;;;;;;2074607;28;20465;-71
2022/12/20 02:21:46;;;;;;;1.88;1.67;;;13.10;99.90;;;;;;2073581;28;21785;-71
2022/12/20 02:22:59;;;;;;;4.78;1.70;;;13.00;99.90;;;;;;2074088;28;20037;-71
2022/12/20 02:24:53;;;;;;;2.20;1.58;;;13.00;99.90;;;;;;2074644;28;20061;-71
2022/12/20 02:26:20;;;;;;;1.80;1.40;;;13.00;99.90;;;;;;2066860;28;20031;-71
2022/12/20 02:27:52;;;;;;;4.43;2.05;;;13.00;99.90;;;;;;2067489;28;20022;-71
2022/12/20 02:29:18;;;;;;;3.25;1.92;;;13.00;99.90;;;;;;2068702;28;20034;-71
2022/12/20 02:30:25;;;;;;;1.48;1.33;;;13.00;99.90;;;;;;2065573;28;20607;-71
2022/12/20 02:31:32;;;;;;;2.40;1.95;;;13.00;99.90;;;;;;2070097;28;20038;-71
2022/12/20 02:32:41;;;;;;;2.95;1.88;;;13.00;99.90;;;;;;2073925;28;20762;-71
2022/12/20 02:33:46;;;;;;;4.13;1.88;;;13.00;99.90;;;;;;2073507;28;20084;-71
2022/12/20 02:34:49;;;;;;;1.73;1.63;;;13.00;99.90;;;;;;2073585;28;20071;-71
2022/12/20 02:35:49;;;;;;;2.97;1.98;;;13.00;99.90;;;;;;2073183;28;20057;-71
2022/12/20 02:36:51;;;;;;;2.92;2.00;;;13.00;99.90;;;;;;2076729;28;20087;-71
2022/12/20 02:37:55;;;;;;;3.00;2.03;;;13.00;99.90;;;;;;2073990;28;20687;-71
2022/12/20 02:38:55;;;;;;;2.55;1.83;;;13.00;99.90;;;;;;2073610;28;20033;-71
2022/12/20 02:39:56;;;;;;;5.15;2.20;;;13.00;99.90;;;;;;2074575;28;20034;-71
2022/12/20 02:41:10;;;;;;;2.03;1.92;;;13.00;99.90;;;;;;2072768;28;20026;-71
2022/12/20 02:42:14;;;;;;;2.20;2.03;;;13.00;99.90;;;;;;2073271;28;20030;-71
2022/12/20 02:46:10;;;;;;;2.72;1.63;;;13.00;99.90;;;;;;2073748;28;20104;-71
2022/12/20 02:47:16;;;;;;;2.25;1.70;;;13.00;99.90;;;;;;2072518;28;20032;-72
2022/12/20 02:48:19;;;;;;;3.80;2.08;;;12.90;99.90;;;;;;2083692;28;20029;-71
2022/12/20 02:49:24;;;;;;;3.47;1.98;;;12.90;99.90;;;;;;2080743;28;20052;-71
2022/12/20 02:50:32;;;;;;;3.22;1.95;;;12.90;99.90;;;;;;2074021;28;20509;-71
2022/12/20 02:51:33;;;;;;;2.55;1.73;;;12.90;99.90;;;;;;2073009;28;20026;-71
2022/12/20 02:52:35;;;;;;;2.10;1.88;;;12.90;99.90;;;;;;2074334;28;20703;-71
2022/12/20 02:53:37;;;;;;;3.53;1.95;;;12.90;99.90;;;;;;2074505;28;20036;-71
2022/12/20 02:54:38;;;;;;;3.80;1.77;;;12.90;99.90;;;;;;2073821;28;20520;-72
2022/12/20 02:55:47;;;;;;;3.05;1.90;;;12.90;99.90;;;;;;2074292;28;20083;-72
2022/12/20 02:56:50;;;;;;;2.17;1.92;;;12.90;99.90;;;;;;2072940;28;20663;-71
2022/12/20 02:58:30;;;;;;;3.42;2.00;;;12.90;99.90;;;;;;2073554;28;20029;-71
2022/12/20 02:59:55;;;;;;;2.05;1.73;;;12.90;99.90;;;;;;2074114;28;20057;-71
2022/12/20 03:00:58;;;;;;;3.42;1.92;;;12.90;99.90;;;;;;2076150;28;20652;-71
2022/12/20 03:01:59;;;;;;;3.42;2.15;;;12.80;99.90;;;;;;2074069;28;20152;-71
2022/12/20 03:04:24;;;;;;;4.70;2.17;;;12.90;99.90;;;;;;2075265;28;20034;-71
2022/12/20 03:05:26;;;;;;;2.00;1.80;;;12.80;99.90;;;;;;2080271;28;20592;-71
2022/12/20 03:06:28;;;;;;;2.70;2.00;;;12.90;99.90;;;;;;2080780;28;20570;-71
2022/12/20 03:07:28;;;;;;;4.85;2.28;;;12.80;99.90;;;;;;2076564;28;20014;-71
2022/12/20 03:08:29;;;;;;;3.58;1.77;;;12.90;99.90;;;;;;2073273;28;20041;-71
2022/12/20 03:09:31;;;;;;;2.45;1.98;;;12.90;99.90;;;;;;2074304;28;20157;-71
2022/12/20 03:10:32;;;;;;;2.88;1.98;;;12.80;99.90;;;;;;2074440;28;20057;-71
2022/12/20 03:11:33;;;;;;;1.83;1.70;;;12.80;99.90;;;;;;2073368;28;20049;-71
2022/12/20 03:12:33;;;;;;;3.47;2.08;;;12.80;99.90;;;;;;2072697;28;20450;-71
2022/12/20 03:13:34;;;;;;;3.17;2.45;;;12.90;99.90;;;;;;2075767;28;20033;-71
2022/12/20 03:14:34;;;;;;;3.47;2.05;;;12.90;99.90;;;;;;2072896;28;20061;-71
2022/12/20 03:15:35;;;;;;;2.60;1.98;;;12.80;99.90;;;;;;2072934;28;20037;-71
2022/12/20 03:16:35;;;;;;;3.25;2.10;;;12.90;99.90;;;;;;2075828;28;20400;-71
2022/12/20 03:17:36;;;;;;;3.33;2.08;;;12.80;99.90;;;;;;2074209;28;20041;-71
2022/12/20 03:18:37;;;;;;;4.03;1.92;;;12.80;99.90;;;;;;2076446;28;20396;-71
2022/12/20 03:19:38;;;;;;;4.40;2.00;;;12.80;99.90;;;;;;2074425;28;20040;-71
2022/12/20 03:20:38;;;;;;;3.60;2.13;;;12.80;99.90;;;;;;2074864;28;20026;-71
2022/12/20 03:21:39;;;;;;;5.22;2.47;;;12.80;99.90;;;;;;2075906;28;20037;-71
2022/12/20 03:22:40;;;;;;;3.55;2.35;;;12.80;99.90;;;;;;2074473;28;20040;-71
2022/12/20 03:23:40;;;;;;;4.55;2.20;;;12.80;99.90;;;;;;2074013;28;20828;-72
2022/12/20 03:24:41;;;;;;;3.00;2.15;;;12.80;99.90;;;;;;2073798;28;20021;-71
2022/12/20 03:25:41;;;;;;;3.05;2.15;;;12.80;99.90;;;;;;2075563;28;20026;-72
2022/12/20 03:26:42;;;;;;;3.22;2.35;;;12.80;99.90;;;;;;2065769;28;20026;-72
2022/12/20 03:27:43;;;;;;;3.70;2.15;;;12.80;99.90;;;;;;2073909;28;20032;-71
2022/12/20 03:28:43;;;;;;;3.15;2.35;;;12.80;99.90;;;;;;2074347;28;20076;-72
2022/12/20 03:29:44;;;;;;;4.22;2.45;;;12.80;99.90;;;;;;2074755;28;20025;-71
2022/12/20 03:30:45;;;;;;;3.95;2.45;;;12.70;99.90;;;;;;2074613;28;20018;-71
2022/12/20 03:31:46;;;;;;;2.97;2.45;;;12.70;99.90;;;;;;2074424;28;20651;-71
2022/12/20 03:32:46;;;;;;;4.40;2.17;;;12.70;99.90;;;;;;2074150;28;20668;-71
2022/12/20 03:33:47;;;;;;;3.30;2.22;;;12.70;99.90;;;;;;2077013;28;20035;-71
2022/12/20 03:34:48;;;;;;;4.63;2.00;;;12.70;99.90;;;;;;2072892;28;20037;-71
2022/12/20 03:35:48;;;;;;;2.38;2.17;;;12.70;99.90;;;;;;2075451;28;20037;-71
2022/12/20 03:36:49;;;;;;;3.15;2.42;;;12.70;99.90;;;;;;2074332;28;20865;-71
2022/12/20 03:37:49;;;;;;;2.63;2.20;;;12.60;99.90;;;;;;2072756;28;20032;-71
2022/12/20 03:38:50;;;;;;;2.55;1.98;;;12.60;99.90;;;;;;2075841;28;20043;-71
2022/12/20 03:39:51;;;;;;;4.00;2.70;;;12.60;99.90;;;;;;2075553;28;20079;-71
2022/12/20 03:40:52;;;;;;;2.70;2.10;;;12.60;99.90;;;;;;2073021;28;20025;-71
2022/12/20 03:41:52;;;;;;;3.05;2.33;;;12.60;99.90;;;;;;2076783;28;20184;-71
2022/12/20 03:42:53;;;;;;;5.13;2.45;;;12.50;99.90;;;;;;2071864;28;20042;-71
2022/12/20 03:43:53;;;;;;;4.35;2.58;;;12.60;99.90;;;;;;2073293;28;20585;-71
2022/12/20 03:44:54;;;;;;;3.58;2.25;;;12.60;99.90;;;;;;2074968;28;20030;-71
2022/12/20 03:45:54;;;;;;;3.25;2.60;;;12.50;99.90;;;;;;2071825;28;20072;-71
2022/12/20 03:46:55;;;;;;;3.00;2.20;;;12.50;99.90;;;;;;2075268;28;20076;-71
2022/12/20 03:47:55;;;;;;;2.55;2.35;;;12.50;99.90;;;;;;2075229;28;20694;-71
2022/12/20 03:48:56;;;;;;;2.47;2.17;;;12.50;99.90;;;;;;2073411;28;20116;-71
2022/12/20 03:49:56;;;;;;;5.15;2.72;;;12.50;99.90;;;;;;2075552;28;20045;-71
2022/12/20 03:50:57;;;;;;;3.42;2.33;;;12.50;99.90;;;;;;2072748;28;20787;-71
2022/12/20 03:51:57;;;;;;;3.92;2.80;;;12.50;99.90;;;;;;2073851;28;20492;-71
2022/12/20 03:52:58;;;;;;;3.33;2.28;;;12.50;99.90;;;;;;2074283;28;20035;-71
2022/12/20 03:53:59;;;;;;;3.85;2.50;;;12.40;99.90;;;;;;2074349;28;20025;-71
2022/12/20 03:54:59;;;;;;;2.80;2.58;;;12.40;99.90;;;;;;2073711;28;20033;-71
2022/12/20 03:56:00;;;;;;;3.38;2.53;;;12.40;99.90;;;;;;2072799;28;20612;-71
2022/12/20 03:57:00;;;;;;;3.17;2.53;;;12.40;99.90;;;;;;2070470;28;20458;-71
2022/12/20 03:58:01;;;;;;;2.88;2.35;;;12.40;99.90;;;;;;2075277;28;20035;-71
2022/12/20 03:59:02;;;;;;;4.35;2.40;;;12.40;99.90;;;;;;2074635;28;20520;-71
2022/12/20 04:00:03;;;;;;;4.40;3.13;;;12.40;99.90;;;;;;2074781;28;20032;-71
2022/12/20 04:01:20;;;;;;;4.47;2.70;;;12.40;99.90;;;;;;2074162;28;20029;-71
2022/12/20 04:02:21;;;;;;;3.45;2.30;;;12.40;99.90;;;;;;2074123;28;20037;-71
2022/12/20 04:03:22;;;;;;;4.32;2.47;;;12.30;99.90;;;;;;2072681;28;20080;-71
2022/12/20 04:04:22;;;;;;;2.88;2.25;;;12.30;99.90;;;;;;2074125;28;20026;-71
2022/12/20 04:05:23;;;;;;;3.75;2.55;;;12.40;99.90;;;;;;2073660;28;20029;-71
2022/12/20 04:06:24;;;;;;;2.42;2.22;;;12.30;99.90;;;;;;2074464;28;20046;-71
2022/12/20 04:07:24;;;;;;;4.75;2.28;;;12.30;99.90;;;;;;2073854;28;20037;-71
2022/12/20 04:08:25;;;;;;;4.50;2.55;;;12.40;99.90;;;;;;2075305;28;20052;-71
2022/12/20 04:09:25;;;;;;;4.13;2.42;;;12.30;99.90;;;;;;2073905;28;20057;-71
2022/12/20 04:10:26;;;;;;;6.68;2.63;;;12.30;99.90;;;;;;2073488;28;20028;-71
2022/12/20 04:11:26;;;;;;;4.00;2.40;;;12.30;99.90;;;;;;2074321;28;20030;-71
2022/12/20 04:12:27;;;;;;;3.25;2.25;;;12.30;99.90;;;;;;2073405;28;20022;-71
2022/12/20 04:13:27;;;;;;;2.95;2.13;;;12.30;99.90;;;;;;2075153;28;20071;-71
2022/12/20 04:14:28;;;;;;;3.30;2.35;;;12.30;99.90;;;;;;2074969;28;20161;-71
2022/12/20 04:15:28;;;;;;;6.03;2.80;;;12.30;99.90;;;;;;2073576;28;20034;-71
2022/12/20 04:16:31;;;;;;;3.42;2.50;;;12.30;99.90;;;;;;2075603;28;20382;-71
2022/12/20 04:17:31;;;;;;;4.03;2.63;;;12.30;99.90;;;;;;2073566;28;20534;-71
2022/12/20 04:18:32;;;;;;;2.78;2.28;;;12.30;99.90;;;;;;2074287;28;20022;-71
2022/12/20 04:19:32;;;;;;;2.58;2.25;;;12.30;99.90;;;;;;2073103;28;20093;-71
2022/12/20 04:20:33;;;;;;;3.63;2.70;;;12.30;99.90;;;;;;2073725;28;20026;-71
2022/12/20 04:21:35;;;;;;;4.45;2.58;;;12.30;99.90;;;;;;2074139;28;20065;-71
2022/12/20 04:22:35;;;;;;;3.50;2.78;;;12.30;99.90;;;;;;2072559;28;20049;-71
2022/12/20 04:23:37;;;;;;;3.42;2.40;;;12.30;99.90;;;;;;2073436;28;20085;-71
2022/12/20 04:24:37;;;;;;;3.95;2.53;;;12.30;99.90;;;;;;2074513;28;20057;-71
2022/12/20 04:25:38;;;;;;;2.75;2.47;;;12.20;99.90;;;;;;2073946;28;20026;-71
2022/12/20 04:26:38;;;;;;;3.00;2.67;;;12.30;99.90;;;;;;2072993;28;20022;-71
2022/12/20 04:27:39;;;;;;;2.38;2.10;;;12.30;99.90;;;;;;2073524;28;20661;-71
2022/12/20 04:28:40;;;;;;;4.30;2.70;;;12.30;99.90;;;;;;2074963;28;20036;-71
2022/12/20 04:29:40;;;;;;;3.50;2.60;;;12.30;99.90;;;;;;2073574;28;20417;-71
2022/12/20 04:30:41;;;;;;;3.95;2.38;;;12.30;99.90;;;;;;2074453;28;20033;-71
2022/12/20 04:31:41;;;;;;;4.28;2.58;;;12.20;99.90;;;;;;2074732;28;20729;-71
2022/12/20 04:32:42;;;;;;;4.13;2.30;;;12.30;99.90;;;;;;2072955;28;20014;-71
2022/12/20 04:33:42;;;;;;;2.72;2.53;;;12.20;99.90;;;;;;2073611;28;20030;-71
2022/12/20 04:34:43;;;;;;;3.83;2.25;;;12.20;99.90;;;;;;2074163;28;20029;-71
2022/12/20 04:35:43;;;;;;;3.17;2.30;;;12.20;99.90;;;;;;2073911;28;20064;-71
2022/12/20 04:36:44;;;;;;;7.00;2.45;;;12.20;99.90;;;;;;2073096;28;20033;-71
2022/12/20 04:37:44;;;;;;;7.03;3.13;;;12.20;99.90;;;;;;2074891;28;20026;-71
2022/12/20 04:38:45;;;;;;;2.75;2.47;;;12.20;99.90;;;;;;2073102;28;20030;-71
2022/12/20 04:39:45;;;;;;;3.33;2.50;;;12.20;99.90;;;;;;2071538;28;20032;-71
2022/12/20 04:40:50;;;;;;;5.53;2.50;;;12.20;99.90;;;;;;2074475;28;20048;-71
2022/12/20 04:41:51;;;;;;;4.07;2.90;;;12.20;99.90;;;;;;2074574;28;20029;-71
2022/12/20 04:42:51;;;;;;;4.18;2.58;;;12.20;99.90;;;;;;2071852;28;20676;-71
2022/12/20 04:43:54;;;;;;;3.50;2.50;;;12.20;99.90;;;;;;2074499;28;20086;-71
2022/12/20 04:44:54;;;;;;;2.67;2.25;;;12.20;99.90;;;;;;2073716;28;20044;-71
2022/12/20 04:45:55;;;;;;;4.32;2.65;;;12.10;99.90;;;;;;2071703;28;20820;-71
2022/12/20 04:46:56;;;;;;;3.33;2.53;;;12.20;99.90;;;;;;2076597;28;20029;-71
2022/12/20 04:47:56;;;;;;;2.58;2.38;;;12.10;99.90;;;;;;2074454;28;20037;-71
2022/12/20 04:48:57;;;;;;;3.10;2.47;;;12.10;99.90;;;;;;2073638;28;20116;-71
2022/12/20 04:49:57;;;;;;;4.35;2.58;;;12.20;99.90;;;;;;2072433;28;20104;-71
2022/12/20 04:50:58;;;;;;;4.63;2.72;;;12.10;99.90;;;;;;2075493;28;20033;-71
2022/12/20 04:53:46;;;;;;;5.43;2.58;;;12.10;99.90;;;;;;2074581;28;20116;-71
2022/12/20 04:54:39;;;;;;;3.15;2.40;;;12.10;99.90;;;;;;2073442;28;20398;-71
2022/12/20 04:55:40;;;;;;;4.28;2.60;;;12.10;99.90;;;;;;2074275;28;20034;-71
2022/12/20 04:56:40;;;;;;;4.18;2.38;;;12.10;99.90;;;;;;2072842;28;20025;-71
2022/12/20 04:57:41;;;;;;;3.80;2.53;;;12.10;99.90;;;;;;2071885;28;20488;-71
2022/12/20 04:58:42;;;;;;;4.50;2.50;;;12.10;99.90;;;;;;2074662;28;20075;-71
2022/12/20 04:59:42;;;;;;;2.83;2.28;;;12.10;99.90;;;;;;2073847;28;20037;-71
2022/12/20 05:00:43;;;;;;;3.42;2.60;;;12.10;99.90;;;;;;2074354;28;20426;-71
2022/12/20 05:01:43;;;;;;;4.80;2.55;;;12.10;99.90;;;;;;2074177;28;20058;-71
2022/12/20 05:02:44;;;;;;;3.85;2.40;;;12.10;99.90;;;;;;2074086;28;20477;-71
2022/12/20 05:03:45;;;;;;;3.78;2.50;;;12.10;99.90;;;;;;2074472;28;20022;-71
2022/12/20 05:04:46;;;;;;;2.55;2.08;;;12.00;99.90;;;;;;2082696;28;20033;-71
2022/12/20 05:05:47;;;;;;;2.42;2.03;;;12.00;99.90;;;;;;2082123;28;20029;-71
2022/12/20 05:06:47;;;;;;;3.90;2.25;;;12.00;99.90;;;;;;2073137;28;21412;-71
2022/12/20 05:07:49;;;;;;;2.72;2.47;;;12.00;99.90;;;;;;2073677;28;20022;-71
2022/12/20 05:08:50;;;;;;;6.60;2.60;;;12.00;99.90;;;;;;2075003;28;20546;-71
2022/12/20 05:09:50;;;;;;;3.60;2.78;;;12.00;99.90;;;;;;2074450;28;20102;-71
2022/12/20 05:10:51;;;;;;;4.53;2.42;;;12.00;99.90;;;;;;2074721;28;20022;-71
2022/12/20 05:11:51;;;;;;;7.15;2.83;;;12.00;99.90;;;;;;2072440;28;20025;-71
2022/12/20 05:12:52;;;;;;;3.53;2.40;;;12.00;99.90;;;;;;2071507;28;20026;-71
2022/12/20 05:13:52;;;;;;;3.53;2.55;;;12.00;99.90;;;;;;2074571;28;20136;-71
2022/12/20 05:14:53;;;;;;;4.25;2.45;;;12.00;99.90;;;;;;2071781;28;20145;-71
2022/12/20 05:15:55;;;;;;;4.22;2.40;;;12.00;99.90;;;;;;2072401;28;20095;-71
2022/12/20 05:16:55;;;;;;;5.22;2.53;;;12.00;99.90;;;;;;2074484;28;20656;-71
2022/12/20 05:17:58;;;;;;;3.60;2.38;;;12.00;99.90;;;;;;2074038;28;20062;-71
2022/12/20 05:18:59;;;;;;;5.95;2.67;;;12.00;99.90;;;;;;2073547;28;20500;-71
2022/12/20 05:19:59;;;;;;;2.97;2.67;;;12.00;99.90;;;;;;2071936;28;20457;-71
2022/12/20 05:26:17;;;;;;;3.72;2.50;;;12.00;99.90;;;;;;2076083;28;20037;-71
2022/12/20 05:27:18;;;;;;;3.65;2.80;;;11.90;99.90;;;;;;2074491;28;20105;-71
2022/12/20 05:28:18;;;;;;;4.47;2.50;;;11.90;99.90;;;;;;2074537;28;20025;-71
2022/12/20 05:29:19;;;;;;;6.85;3.65;;;11.90;99.90;;;;;;2075126;28;20029;-71
2022/12/20 05:30:20;;;;;;;4.07;2.60;;;11.90;99.90;;;;;;2073474;28;20048;-71
2022/12/20 05:31:20;;;;;;;3.67;2.80;;;11.90;99.90;;;;;;2077869;28;20100;-71
2022/12/20 05:32:21;;;;;;;2.80;2.50;;;12.00;99.90;;;;;;2076165;28;20104;-71
2022/12/20 05:33:21;;;;;;;5.05;2.33;;;12.00;99.90;;;;;;2074417;28;20485;-71
2022/12/20 05:34:22;;;;;;;2.97;2.50;;;11.90;99.90;;;;;;2075741;28;20018;-71
2022/12/20 05:35:23;;;;;;;3.85;2.40;;;12.00;99.90;;;;;;2074016;28;20072;-71
2022/12/20 05:36:23;;;;;;;4.00;2.50;;;12.00;99.90;;;;;;2072843;28;20026;-71
2022/12/20 05:37:24;;;;;;;4.13;2.45;;;12.00;99.90;;;;;;2074719;28;20433;-71